TAF Text Data
IDs:
Format:
Raw Decoded Include METAR

Data at: 1055 UTC 23 Jun 2021

METAR for:LWSK (Skopje/Alexander the, IL, MJ)
Text:LWSK 231030Z 28002KT CAVOK 35/13 Q1016 NOSIG
Temperature: 35.0°C ( 95°F)
Dewpoint: 13.0°C ( 55°F) [RH = 27%]
Pressure (altimeter):30.00 inches Hg (1016.0 mb)
Winds:from the W (280 degrees) at 2 MPH (2 knots; 1.0 m/s)
Visibility:6 or more sm (10+ km)
Ceiling:ceiling and visibility are OK
Clouds:unknown

TAF for:LWSK (Skopje/Alexander the, IL, MJ) issued at 0830 UTC 23 Jun 2021
Text:TAF LWSK 230830Z 2309/2409 VRB02KT CAVOK
Forecast period:0900 UTC 23 June 2021 to 0900 UTC 24 June 2021
Forecast type:FROM: standard forecast or significant change
Winds:variable direction winds at 2 MPH (2 knots; 1.0 m/s)
Visibility:6 or more sm (10+ km)
Clouds:missing
Weather:NSW (no significant weather)
Text:TEMPO 2312/2318 35010KT
Forecast period:1200 to 1800 UTC 23 June 2021
Forecast type:TEMPORARY: The following changes expected for less than half the time period
Winds:from the N (350 degrees) at 12 MPH (10 knots; 5.1 m/s)
Clouds:missing